sensor_id;sensor_type;location;lat;lon;timestamp;temperature;humidity
53073;DHT22;38955;48.916;2.336;2023-06-26T00:00:12;22.50;91.70
53073;DHT22;38955;48.916;2.336;2023-06-26T00:02:14;22.40;91.90
53073;DHT22;38955;48.916;2.336;2023-06-26T00:04:18;22.50;91.90
53073;DHT22;38955;48.916;2.336;2023-06-26T00:06:20;22.50;91.90
53073;DHT22;38955;48.916;2.336;2023-06-26T00:08:22;22.50;91.80
53073;DHT22;38955;48.916;2.336;2023-06-26T00:10:24;22.40;92.00
53073;DHT22;38955;48.916;2.336;2023-06-26T00:12:26;22.40;91.90
53073;DHT22;38955;48.916;2.336;2023-06-26T00:14:28;22.40;91.90
53073;DHT22;38955;48.916;2.336;2023-06-26T00:16:30;22.40;92.00
53073;DHT22;38955;48.916;2.336;2023-06-26T00:18:33;22.40;91.90
53073;DHT22;38955;48.916;2.336;2023-06-26T00:20:36;22.30;92.10
53073;DHT22;38955;48.916;2.336;2023-06-26T00:22:38;22.30;92.10
53073;DHT22;38955;48.916;2.336;2023-06-26T00:24:43;22.30;92.10
53073;DHT22;38955;48.916;2.336;2023-06-26T00:26:47;22.30;92.20
53073;DHT22;38955;48.916;2.336;2023-06-26T00:28:49;22.20;92.10
53073;DHT22;38955;48.916;2.336;2023-06-26T00:30:51;22.20;92.00
53073;DHT22;38955;48.916;2.336;2023-06-26T00:32:53;22.20;91.80
53073;DHT22;38955;48.916;2.336;2023-06-26T00:34:56;22.20;91.80
53073;DHT22;38955;48.916;2.336;2023-06-26T00:36:59;22.20;91.80
53073;DHT22;38955;48.916;2.336;2023-06-26T00:39:02;22.10;91.90
53073;DHT22;38955;48.916;2.336;2023-06-26T00:41:05;22.10;92.00
53073;DHT22;38955;48.916;2.336;2023-06-26T00:43:14;22.10;92.00
53073;DHT22;38955;48.916;2.336;2023-06-26T00:45:16;22.00;92.30
53073;DHT22;38955;48.916;2.336;2023-06-26T00:47:31;22.10;92.00
53073;DHT22;38955;48.916;2.336;2023-06-26T00:49:33;22.10;92.20
53073;DHT22;38955;48.916;2.336;2023-06-26T00:51:35;22.10;92.30
53073;DHT22;38955;48.916;2.336;2023-06-26T00:53:39;22.00;92.20
53073;DHT22;38955;48.916;2.336;2023-06-26T00:55:41;22.00;92.30
53073;DHT22;38955;48.916;2.336;2023-06-26T00:57:43;21.90;92.70
53073;DHT22;38955;48.916;2.336;2023-06-26T00:59:48;21.90;92.70
53073;DHT22;38955;48.916;2.336;2023-06-26T01:01:50;21.80;92.90
53073;DHT22;38955;48.916;2.336;2023-06-26T01:03:53;21.80;93.10
53073;DHT22;38955;48.916;2.336;2023-06-26T01:05:56;21.80;93.30
53073;DHT22;38955;48.916;2.336;2023-06-26T01:08:01;21.90;93.30
53073;DHT22;38955;48.916;2.336;2023-06-26T01:10:06;21.80;93.30
53073;DHT22;38955;48.916;2.336;2023-06-26T01:12:08;21.70;93.40
53073;DHT22;38955;48.916;2.336;2023-06-26T01:14:11;21.50;93.70
53073;DHT22;38955;48.916;2.336;2023-06-26T01:16:14;21.50;93.90
53073;DHT22;38955;48.916;2.336;2023-06-26T01:18:16;21.40;94.00
53073;DHT22;38955;48.916;2.336;2023-06-26T01:20:19;21.50;94.10
53073;DHT22;38955;48.916;2.336;2023-06-26T01:22:26;21.60;94.00
53073;DHT22;38955;48.916;2.336;2023-06-26T01:24:33;21.50;94.30
53073;DHT22;38955;48.916;2.336;2023-06-26T01:26:40;21.40;94.20
53073;DHT22;38955;48.916;2.336;2023-06-26T01:28:44;21.30;94.40
53073;DHT22;38955;48.916;2.336;2023-06-26T01:30:47;21.20;94.60
53073;DHT22;38955;48.916;2.336;2023-06-26T01:32:49;21.20;94.70
53073;DHT22;38955;48.916;2.336;2023-06-26T01:34:52;21.10;94.80
53073;DHT22;38955;48.916;2.336;2023-06-26T01:36:54;21.20;94.80
53073;DHT22;38955;48.916;2.336;2023-06-26T01:38:56;21.00;94.80
53073;DHT22;38955;48.916;2.336;2023-06-26T01:40:59;21.00;95.00
53073;DHT22;38955;48.916;2.336;2023-06-26T01:43:02;21.00;94.80
53073;DHT22;38955;48.916;2.336;2023-06-26T01:45:12;21.10;94.80
53073;DHT22;38955;48.916;2.336;2023-06-26T01:47:17;21.00;94.90
53073;DHT22;38955;48.916;2.336;2023-06-26T01:49:25;20.90;95.10
53073;DHT22;38955;48.916;2.336;2023-06-26T01:51:35;20.90;95.30
53073;DHT22;38955;48.916;2.336;2023-06-26T01:53:41;20.80;95.30
53073;DHT22;38955;48.916;2.336;2023-06-26T01:55:51;20.90;95.10
53073;DHT22;38955;48.916;2.336;2023-06-26T01:57:56;20.80;95.30
53073;DHT22;38955;48.916;2.336;2023-06-26T02:00:00;20.80;95.40
53073;DHT22;38955;48.916;2.336;2023-06-26T02:02:03;20.90;95.30
53073;DHT22;38955;48.916;2.336;2023-06-26T02:04:08;20.80;95.30
53073;DHT22;38955;48.916;2.336;2023-06-26T02:06:10;20.90;95.30
53073;DHT22;38955;48.916;2.336;2023-06-26T02:08:14;20.90;95.10
53073;DHT22;38955;48.916;2.336;2023-06-26T02:10:17;21.00;95.20
53073;DHT22;38955;48.916;2.336;2023-06-26T02:12:19;21.00;95.10
53073;DHT22;38955;48.916;2.336;2023-06-26T02:14:21;21.00;95.00
53073;DHT22;38955;48.916;2.336;2023-06-26T02:16:24;21.10;95.00
53073;DHT22;38955;48.916;2.336;2023-06-26T02:18:26;21.00;95.10
53073;DHT22;38955;48.916;2.336;2023-06-26T02:20:28;20.90;94.90
53073;DHT22;38955;48.916;2.336;2023-06-26T02:22:31;20.90;94.70
53073;DHT22;38955;48.916;2.336;2023-06-26T02:24:33;20.80;94.80
53073;DHT22;38955;48.916;2.336;2023-06-26T02:26:36;20.80;94.70
53073;DHT22;38955;48.916;2.336;2023-06-26T02:28:38;20.80;94.70
53073;DHT22;38955;48.916;2.336;2023-06-26T02:30:40;20.80;94.40
53073;DHT22;38955;48.916;2.336;2023-06-26T02:32:44;20.80;94.40
53073;DHT22;38955;48.916;2.336;2023-06-26T02:34:47;20.80;94.50
53073;DHT22;38955;48.916;2.336;2023-06-26T02:36:49;20.70;94.20
53073;DHT22;38955;48.916;2.336;2023-06-26T02:38:51;20.70;94.40
53073;DHT22;38955;48.916;2.336;2023-06-26T02:40:53;20.60;93.80
53073;DHT22;38955;48.916;2.336;2023-06-26T02:42:55;20.50;93.50
53073;DHT22;38955;48.916;2.336;2023-06-26T02:44:57;20.50;93.70
53073;DHT22;38955;48.916;2.336;2023-06-26T02:46:59;20.50;93.60
53073;DHT22;38955;48.916;2.336;2023-06-26T02:49:03;20.30;93.50
53073;DHT22;38955;48.916;2.336;2023-06-26T02:51:06;20.40;93.20
53073;DHT22;38955;48.916;2.336;2023-06-26T02:53:08;20.30;93.20
53073;DHT22;38955;48.916;2.336;2023-06-26T02:55:10;20.40;93.30
53073;DHT22;38955;48.916;2.336;2023-06-26T02:57:12;20.30;93.30
53073;DHT22;38955;48.916;2.336;2023-06-26T02:59:16;20.20;93.40
53073;DHT22;38955;48.916;2.336;2023-06-26T03:01:19;20.30;93.20
53073;DHT22;38955;48.916;2.336;2023-06-26T03:03:22;20.30;93.10
53073;DHT22;38955;48.916;2.336;2023-06-26T03:05:26;20.30;93.20
53073;DHT22;38955;48.916;2.336;2023-06-26T03:07:28;20.20;93.40
53073;DHT22;38955;48.916;2.336;2023-06-26T03:09:30;20.20;93.40
53073;DHT22;38955;48.916;2.336;2023-06-26T03:11:32;20.30;93.70
53073;DHT22;38955;48.916;2.336;2023-06-26T03:13:35;20.20;93.50
53073;DHT22;38955;48.916;2.336;2023-06-26T03:15:37;20.20;93.50
53073;DHT22;38955;48.916;2.336;2023-06-26T03:17:39;20.20;93.60
53073;DHT22;38955;48.916;2.336;2023-06-26T03:19:42;20.20;93.70
53073;DHT22;38955;48.916;2.336;2023-06-26T03:21:45;20.10;93.70
53073;DHT22;38955;48.916;2.336;2023-06-26T03:23:47;20.10;93.80
53073;DHT22;38955;48.916;2.336;2023-06-26T03:25:49;20.10;93.80
53073;DHT22;38955;48.916;2.336;2023-06-26T03:27:52;20.10;93.70
53073;DHT22;38955;48.916;2.336;2023-06-26T03:29:54;20.20;93.90
53073;DHT22;38955;48.916;2.336;2023-06-26T03:31:56;20.10;94.20
53073;DHT22;38955;48.916;2.336;2023-06-26T03:33:58;20.10;93.90
53073;DHT22;38955;48.916;2.336;2023-06-26T03:36:00;20.10;94.00
53073;DHT22;38955;48.916;2.336;2023-06-26T03:38:04;20.10;93.90
53073;DHT22;38955;48.916;2.336;2023-06-26T03:40:07;20.10;94.10
53073;DHT22;38955;48.916;2.336;2023-06-26T03:42:10;20.10;94.00
53073;DHT22;38955;48.916;2.336;2023-06-26T03:44:12;20.00;94.00
53073;DHT22;38955;48.916;2.336;2023-06-26T03:46:14;20.00;94.00
53073;DHT22;38955;48.916;2.336;2023-06-26T03:48:16;20.10;94.30
53073;DHT22;38955;48.916;2.336;2023-06-26T03:50:18;20.00;94.10
53073;DHT22;38955;48.916;2.336;2023-06-26T03:52:20;20.00;94.20
53073;DHT22;38955;48.916;2.336;2023-06-26T03:54:24;20.00;94.10
53073;DHT22;38955;48.916;2.336;2023-06-26T03:56:26;20.00;94.20
53073;DHT22;38955;48.916;2.336;2023-06-26T03:58:28;20.10;94.20
53073;DHT22;38955;48.916;2.336;2023-06-26T04:00:30;20.00;94.40
53073;DHT22;38955;48.916;2.336;2023-06-26T04:02:32;20.00;94.20
53073;DHT22;38955;48.916;2.336;2023-06-26T04:04:34;20.00;94.30
53073;DHT22;38955;48.916;2.336;2023-06-26T04:06:37;20.00;94.30
53073;DHT22;38955;48.916;2.336;2023-06-26T04:08:39;20.00;94.30
53073;DHT22;38955;48.916;2.336;2023-06-26T04:10:42;19.90;94.30
53073;DHT22;38955;48.916;2.336;2023-06-26T04:12:47;19.90;94.60
53073;DHT22;38955;48.916;2.336;2023-06-26T04:14:49;19.90;94.70
53073;DHT22;38955;48.916;2.336;2023-06-26T04:16:51;19.90;94.60
53073;DHT22;38955;48.916;2.336;2023-06-26T04:18:54;19.90;94.70
53073;DHT22;38955;48.916;2.336;2023-06-26T04:21:06;19.90;94.70
53073;DHT22;38955;48.916;2.336;2023-06-26T04:23:13;19.90;94.80
53073;DHT22;38955;48.916;2.336;2023-06-26T04:25:15;19.90;94.90
53073;DHT22;38955;48.916;2.336;2023-06-26T04:27:18;19.90;95.00
53073;DHT22;38955;48.916;2.336;2023-06-26T04:29:20;19.80;95.10
53073;DHT22;38955;48.916;2.336;2023-06-26T04:31:23;19.80;95.20
53073;DHT22;38955;48.916;2.336;2023-06-26T04:33:25;19.80;95.10
53073;DHT22;38955;48.916;2.336;2023-06-26T04:35:27;19.80;95.00
53073;DHT22;38955;48.916;2.336;2023-06-26T04:37:29;19.90;94.80
53073;DHT22;38955;48.916;2.336;2023-06-26T04:39:32;20.00;95.00
53073;DHT22;38955;48.916;2.336;2023-06-26T04:41:34;19.90;94.90
53073;DHT22;38955;48.916;2.336;2023-06-26T04:43:38;20.00;94.90
53073;DHT22;38955;48.916;2.336;2023-06-26T04:45:40;20.00;95.10
53073;DHT22;38955;48.916;2.336;2023-06-26T04:47:42;20.00;95.00
53073;DHT22;38955;48.916;2.336;2023-06-26T04:49:44;19.90;95.30
53073;DHT22;38955;48.916;2.336;2023-06-26T04:51:48;19.90;95.10
53073;DHT22;38955;48.916;2.336;2023-06-26T04:53:50;19.90;95.10
53073;DHT22;38955;48.916;2.336;2023-06-26T04:55:52;19.90;95.10
53073;DHT22;38955;48.916;2.336;2023-06-26T04:57:55;19.90;95.10
53073;DHT22;38955;48.916;2.336;2023-06-26T04:59:58;19.90;95.30
53073;DHT22;38955;48.916;2.336;2023-06-26T05:02:00;19.90;95.30
53073;DHT22;38955;48.916;2.336;2023-06-26T05:04:03;19.90;95.30
53073;DHT22;38955;48.916;2.336;2023-06-26T05:06:05;19.90;95.30
53073;DHT22;38955;48.916;2.336;2023-06-26T05:08:14;19.90;95.30
53073;DHT22;38955;48.916;2.336;2023-06-26T05:10:17;20.10;95.10
53073;DHT22;38955;48.916;2.336;2023-06-26T05:12:19;20.10;95.10
53073;DHT22;38955;48.916;2.336;2023-06-26T05:14:21;20.10;95.00
53073;DHT22;38955;48.916;2.336;2023-06-26T05:16:27;20.10;94.80
53073;DHT22;38955;48.916;2.336;2023-06-26T05:18:29;20.20;94.60
53073;DHT22;38955;48.916;2.336;2023-06-26T05:20:32;20.10;94.80
53073;DHT22;38955;48.916;2.336;2023-06-26T05:22:34;20.20;95.00
53073;DHT22;38955;48.916;2.336;2023-06-26T05:24:38;20.20;94.60
53073;DHT22;38955;48.916;2.336;2023-06-26T05:26:41;20.10;94.50
53073;DHT22;38955;48.916;2.336;2023-06-26T05:28:43;20.10;94.70
53073;DHT22;38955;48.916;2.336;2023-06-26T05:30:50;20.20;94.70
53073;DHT22;38955;48.916;2.336;2023-06-26T05:32:55;20.10;94.50
53073;DHT22;38955;48.916;2.336;2023-06-26T05:34:57;20.20;94.50
53073;DHT22;38955;48.916;2.336;2023-06-26T05:37:01;20.20;94.80
53073;DHT22;38955;48.916;2.336;2023-06-26T05:39:04;20.20;94.80
53073;DHT22;38955;48.916;2.336;2023-06-26T05:41:07;20.20;95.00
53073;DHT22;38955;48.916;2.336;2023-06-26T05:43:10;20.20;94.70
53073;DHT22;38955;48.916;2.336;2023-06-26T05:45:12;20.10;94.80
53073;DHT22;38955;48.916;2.336;2023-06-26T05:47:14;20.00;94.70
53073;DHT22;38955;48.916;2.336;2023-06-26T05:49:17;20.10;94.90
53073;DHT22;38955;48.916;2.336;2023-06-26T05:51:20;20.10;94.90
53073;DHT22;38955;48.916;2.336;2023-06-26T05:53:22;20.10;94.80
53073;DHT22;38955;48.916;2.336;2023-06-26T05:55:25;20.10;95.10
53073;DHT22;38955;48.916;2.336;2023-06-26T05:57:29;20.10;94.70
53073;DHT22;38955;48.916;2.336;2023-06-26T05:59:33;20.10;94.90
53073;DHT22;38955;48.916;2.336;2023-06-26T06:01:36;20.00;94.60
53073;DHT22;38955;48.916;2.336;2023-06-26T06:03:39;20.10;94.80
53073;DHT22;38955;48.916;2.336;2023-06-26T06:05:42;20.20;94.60
53073;DHT22;38955;48.916;2.336;2023-06-26T06:07:44;20.20;94.50
53073;DHT22;38955;48.916;2.336;2023-06-26T06:09:46;20.30;94.20
53073;DHT22;38955;48.916;2.336;2023-06-26T06:11:48;20.30;94.00
53073;DHT22;38955;48.916;2.336;2023-06-26T06:13:50;20.40;94.00
53073;DHT22;38955;48.916;2.336;2023-06-26T06:15:53;20.50;93.90
53073;DHT22;38955;48.916;2.336;2023-06-26T06:17:55;20.60;93.70
53073;DHT22;38955;48.916;2.336;2023-06-26T06:19:57;20.60;93.50
53073;DHT22;38955;48.916;2.336;2023-06-26T06:22:00;20.50;93.40
53073;DHT22;38955;48.916;2.336;2023-06-26T06:24:03;20.50;93.30
53073;DHT22;38955;48.916;2.336;2023-06-26T06:26:05;20.60;93.30
53073;DHT22;38955;48.916;2.336;2023-06-26T06:28:07;20.60;93.30
53073;DHT22;38955;48.916;2.336;2023-06-26T06:30:11;20.70;93.20
53073;DHT22;38955;48.916;2.336;2023-06-26T06:32:13;20.80;93.20
53073;DHT22;38955;48.916;2.336;2023-06-26T06:34:15;20.70;93.00
53073;DHT22;38955;48.916;2.336;2023-06-26T06:36:18;20.70;93.20
53073;DHT22;38955;48.916;2.336;2023-06-26T06:38:21;20.60;93.10
53073;DHT22;38955;48.916;2.336;2023-06-26T06:40:24;20.80;93.30
53073;DHT22;38955;48.916;2.336;2023-06-26T06:42:27;20.90;93.00
53073;DHT22;38955;48.916;2.336;2023-06-26T06:44:30;21.10;92.60
53073;DHT22;38955;48.916;2.336;2023-06-26T06:46:35;21.20;92.60
53073;DHT22;38955;48.916;2.336;2023-06-26T06:48:37;21.40;92.80
53073;DHT22;38955;48.916;2.336;2023-06-26T06:50:39;21.50;92.10
53073;DHT22;38955;48.916;2.336;2023-06-26T06:52:43;21.50;92.10
53073;DHT22;38955;48.916;2.336;2023-06-26T06:54:53;21.60;92.10
53073;DHT22;38955;48.916;2.336;2023-06-26T06:56:55;21.60;91.50
53073;DHT22;38955;48.916;2.336;2023-06-26T06:58:57;21.60;91.70
53073;DHT22;38955;48.916;2.336;2023-06-26T07:00:59;21.50;91.90
53073;DHT22;38955;48.916;2.336;2023-06-26T07:03:01;21.50;91.90
53073;DHT22;38955;48.916;2.336;2023-06-26T07:05:03;21.60;92.10
53073;DHT22;38955;48.916;2.336;2023-06-26T07:07:05;21.60;91.90
53073;DHT22;38955;48.916;2.336;2023-06-26T07:09:08;21.60;91.60
53073;DHT22;38955;48.916;2.336;2023-06-26T07:11:11;21.60;91.50
53073;DHT22;38955;48.916;2.336;2023-06-26T07:13:13;21.60;91.70
53073;DHT22;38955;48.916;2.336;2023-06-26T07:15:17;21.60;91.60
53073;DHT22;38955;48.916;2.336;2023-06-26T07:17:19;21.90;91.40
53073;DHT22;38955;48.916;2.336;2023-06-26T07:19:21;22.00;91.30
53073;DHT22;38955;48.916;2.336;2023-06-26T07:21:23;22.20;91.20
53073;DHT22;38955;48.916;2.336;2023-06-26T07:23:27;22.50;90.90
53073;DHT22;38955;48.916;2.336;2023-06-26T07:25:29;22.80;90.70
53073;DHT22;38955;48.916;2.336;2023-06-26T07:27:33;22.60;90.00
53073;DHT22;38955;48.916;2.336;2023-06-26T07:29:35;22.70;90.30
53073;DHT22;38955;48.916;2.336;2023-06-26T07:31:37;22.50;90.20
53073;DHT22;38955;48.916;2.336;2023-06-26T07:33:39;22.70;90.40
53073;DHT22;38955;48.916;2.336;2023-06-26T07:35:42;23.00;89.20
53073;DHT22;38955;48.916;2.336;2023-06-26T07:37:44;23.10;87.70
53073;DHT22;38955;48.916;2.336;2023-06-26T07:39:46;23.00;88.00
53073;DHT22;38955;48.916;2.336;2023-06-26T07:41:48;22.70;87.90
53073;DHT22;38955;48.916;2.336;2023-06-26T07:43:52;22.90;87.50
53073;DHT22;38955;48.916;2.336;2023-06-26T07:45:54;23.10;87.90
53073;DHT22;38955;48.916;2.336;2023-06-26T07:47:56;23.20;86.80
53073;DHT22;38955;48.916;2.336;2023-06-26T07:49:59;23.20;86.50
53073;DHT22;38955;48.916;2.336;2023-06-26T07:52:01;23.40;86.90
53073;DHT22;38955;48.916;2.336;2023-06-26T07:54:03;23.20;87.00
53073;DHT22;38955;48.916;2.336;2023-06-26T07:56:05;23.00;87.20
53073;DHT22;38955;48.916;2.336;2023-06-26T07:58:08;22.80;87.70
53073;DHT22;38955;48.916;2.336;2023-06-26T08:00:12;22.70;87.60
53073;DHT22;38955;48.916;2.336;2023-06-26T08:02:14;23.00;87.60
53073;DHT22;38955;48.916;2.336;2023-06-26T08:04:18;23.20;87.80
53073;DHT22;38955;48.916;2.336;2023-06-26T08:06:20;23.20;87.50
53073;DHT22;38955;48.916;2.336;2023-06-26T08:08:22;23.30;87.40
53073;DHT22;38955;48.916;2.336;2023-06-26T08:10:24;23.40;87.10
53073;DHT22;38955;48.916;2.336;2023-06-26T08:12:26;23.40;86.30
53073;DHT22;38955;48.916;2.336;2023-06-26T08:14:29;23.30;86.00
53073;DHT22;38955;48.916;2.336;2023-06-26T08:16:32;23.40;85.90
53073;DHT22;38955;48.916;2.336;2023-06-26T08:18:34;23.60;86.10
53073;DHT22;38955;48.916;2.336;2023-06-26T08:20:37;23.60;85.40
53073;DHT22;38955;48.916;2.336;2023-06-26T08:22:40;23.40;85.10
53073;DHT22;38955;48.916;2.336;2023-06-26T08:24:42;23.50;84.50
53073;DHT22;38955;48.916;2.336;2023-06-26T08:26:44;23.60;84.40
53073;DHT22;38955;48.916;2.336;2023-06-26T08:28:47;23.60;84.80
53073;DHT22;38955;48.916;2.336;2023-06-26T08:30:49;23.70;84.60
53073;DHT22;38955;48.916;2.336;2023-06-26T08:32:52;23.50;84.50
53073;DHT22;38955;48.916;2.336;2023-06-26T08:34:54;23.20;85.40
53073;DHT22;38955;48.916;2.336;2023-06-26T08:36:56;23.20;86.10
53073;DHT22;38955;48.916;2.336;2023-06-26T08:38:58;23.20;85.10
53073;DHT22;38955;48.916;2.336;2023-06-26T08:41:01;23.50;85.50
53073;DHT22;38955;48.916;2.336;2023-06-26T08:43:03;23.60;83.00
53073;DHT22;38955;48.916;2.336;2023-06-26T08:45:06;23.70;83.50
53073;DHT22;38955;48.916;2.336;2023-06-26T08:47:11;23.60;82.60
53073;DHT22;38955;48.916;2.336;2023-06-26T08:49:20;23.40;83.80
53073;DHT22;38955;48.916;2.336;2023-06-26T08:51:24;23.50;84.00
53073;DHT22;38955;48.916;2.336;2023-06-26T08:53:32;23.60;84.50
53073;DHT22;38955;48.916;2.336;2023-06-26T08:55:38;23.60;83.50
53073;DHT22;38955;48.916;2.336;2023-06-26T08:57:40;23.60;83.20
53073;DHT22;38955;48.916;2.336;2023-06-26T08:59:42;23.90;83.00
53073;DHT22;38955;48.916;2.336;2023-06-26T09:01:45;24.10;82.70
53073;DHT22;38955;48.916;2.336;2023-06-26T09:03:47;24.20;82.90
53073;DHT22;38955;48.916;2.336;2023-06-26T09:05:51;24.00;81.70
53073;DHT22;38955;48.916;2.336;2023-06-26T09:07:53;23.90;83.00
53073;DHT22;38955;48.916;2.336;2023-06-26T09:10:00;24.00;82.50
53073;DHT22;38955;48.916;2.336;2023-06-26T09:12:02;24.20;82.20
53073;DHT22;38955;48.916;2.336;2023-06-26T09:14:05;24.30;81.40
53073;DHT22;38955;48.916;2.336;2023-06-26T09:16:09;24.40;79.80
53073;DHT22;38955;48.916;2.336;2023-06-26T09:18:13;24.40;79.30
53073;DHT22;38955;48.916;2.336;2023-06-26T09:20:15;24.40;79.00
53073;DHT22;38955;48.916;2.336;2023-06-26T09:22:19;24.30;79.40
53073;DHT22;38955;48.916;2.336;2023-06-26T09:24:22;24.50;80.00
53073;DHT22;38955;48.916;2.336;2023-06-26T09:26:24;24.50;77.70
53073;DHT22;38955;48.916;2.336;2023-06-26T09:28:27;24.50;77.40
53073;DHT22;38955;48.916;2.336;2023-06-26T09:30:32;24.20;77.30
53073;DHT22;38955;48.916;2.336;2023-06-26T09:32:34;24.20;78.00
53073;DHT22;38955;48.916;2.336;2023-06-26T09:34:41;24.00;76.60
53073;DHT22;38955;48.916;2.336;2023-06-26T09:36:45;24.20;77.90
53073;DHT22;38955;48.916;2.336;2023-06-26T09:38:51;24.40;77.90
53073;DHT22;38955;48.916;2.336;2023-06-26T09:40:53;24.50;77.70
53073;DHT22;38955;48.916;2.336;2023-06-26T09:43:02;24.20;74.90
53073;DHT22;38955;48.916;2.336;2023-06-26T09:45:05;24.20;75.10
53073;DHT22;38955;48.916;2.336;2023-06-26T09:47:07;24.10;73.60
53073;DHT22;38955;48.916;2.336;2023-06-26T09:49:10;24.30;73.80
53073;DHT22;38955;48.916;2.336;2023-06-26T09:51:13;24.40;74.00
53073;DHT22;38955;48.916;2.336;2023-06-26T09:53:16;24.40;74.20
53073;DHT22;38955;48.916;2.336;2023-06-26T09:55:21;24.40;74.70
53073;DHT22;38955;48.916;2.336;2023-06-26T09:57:24;24.60;74.60
53073;DHT22;38955;48.916;2.336;2023-06-26T09:59:26;24.70;75.00
53073;DHT22;38955;48.916;2.336;2023-06-26T10:01:29;24.90;74.80
53073;DHT22;38955;48.916;2.336;2023-06-26T10:03:32;24.60;74.20
53073;DHT22;38955;48.916;2.336;2023-06-26T10:05:35;24.50;72.80
53073;DHT22;38955;48.916;2.336;2023-06-26T10:07:37;24.60;73.40
53073;DHT22;38955;48.916;2.336;2023-06-26T10:09:41;24.70;72.80
53073;DHT22;38955;48.916;2.336;2023-06-26T10:11:48;24.60;74.00
53073;DHT22;38955;48.916;2.336;2023-06-26T10:13:54;24.70;73.90
53073;DHT22;38955;48.916;2.336;2023-06-26T10:16:20;24.90;73.60
53073;DHT22;38955;48.916;2.336;2023-06-26T10:18:27;24.90;73.90
53073;DHT22;38955;48.916;2.336;2023-06-26T10:20:30;25.10;73.90
53073;DHT22;38955;48.916;2.336;2023-06-26T10:22:36;24.90;73.70
53073;DHT22;38955;48.916;2.336;2023-06-26T10:24:39;24.50;72.70
53073;DHT22;38955;48.916;2.336;2023-06-26T10:26:45;24.60;72.40
53073;DHT22;38955;48.916;2.336;2023-06-26T10:28:52;24.50;71.70
53073;DHT22;38955;48.916;2.336;2023-06-26T10:30:56;24.60;72.10
53073;DHT22;38955;48.916;2.336;2023-06-26T10:33:00;24.80;71.70
53073;DHT22;38955;48.916;2.336;2023-06-26T10:35:02;24.80;71.90
53073;DHT22;38955;48.916;2.336;2023-06-26T10:37:05;25.00;71.30
53073;DHT22;38955;48.916;2.336;2023-06-26T10:39:07;25.30;71.40
53073;DHT22;38955;48.916;2.336;2023-06-26T10:41:10;25.30;71.50
53073;DHT22;38955;48.916;2.336;2023-06-26T10:43:15;25.40;71.10
53073;DHT22;38955;48.916;2.336;2023-06-26T10:45:20;25.40;71.00
53073;DHT22;38955;48.916;2.336;2023-06-26T10:47:31;25.40;70.60
53073;DHT22;38955;48.916;2.336;2023-06-26T10:49:36;25.50;70.30
53073;DHT22;38955;48.916;2.336;2023-06-26T10:51:38;25.60;71.00
53073;DHT22;38955;48.916;2.336;2023-06-26T10:53:40;25.40;70.40
53073;DHT22;38955;48.916;2.336;2023-06-26T10:55:44;25.40;68.80
53073;DHT22;38955;48.916;2.336;2023-06-26T10:57:49;25.40;69.80
53073;DHT22;38955;48.916;2.336;2023-06-26T11:00:11;25.50;69.20
53073;DHT22;38955;48.916;2.336;2023-06-26T11:02:14;25.60;68.90
53073;DHT22;38955;48.916;2.336;2023-06-26T11:04:18;25.70;68.00
53073;DHT22;38955;48.916;2.336;2023-06-26T11:06:22;25.70;68.50
53073;DHT22;38955;48.916;2.336;2023-06-26T11:08:44;25.50;68.50
53073;DHT22;38955;48.916;2.336;2023-06-26T11:10:50;25.40;67.00
53073;DHT22;38955;48.916;2.336;2023-06-26T11:12:57;25.30;67.30
53073;DHT22;38955;48.916;2.336;2023-06-26T11:15:00;25.40;67.00
53073;DHT22;38955;48.916;2.336;2023-06-26T11:17:04;25.50;68.20
53073;DHT22;38955;48.916;2.336;2023-06-26T11:19:07;25.60;68.10
53073;DHT22;38955;48.916;2.336;2023-06-26T11:21:10;25.10;68.20
53073;DHT22;38955;48.916;2.336;2023-06-26T11:23:21;25.20;68.40
53073;DHT22;38955;48.916;2.336;2023-06-26T11:25:24;25.20;68.20
53073;DHT22;38955;48.916;2.336;2023-06-26T11:27:31;25.20;67.80
53073;DHT22;38955;48.916;2.336;2023-06-26T11:29:33;24.90;68.20
53073;DHT22;38955;48.916;2.336;2023-06-26T11:31:37;25.30;68.60
53073;DHT22;38955;48.916;2.336;2023-06-26T11:33:45;25.10;66.70
53073;DHT22;38955;48.916;2.336;2023-06-26T11:35:47;25.30;67.70
53073;DHT22;38955;48.916;2.336;2023-06-26T11:37:49;25.30;67.80
53073;DHT22;38955;48.916;2.336;2023-06-26T11:39:52;25.40;67.40
53073;DHT22;38955;48.916;2.336;2023-06-26T11:41:54;25.40;67.90
53073;DHT22;38955;48.916;2.336;2023-06-26T11:44:00;25.50;68.20
53073;DHT22;38955;48.916;2.336;2023-06-26T11:46:05;25.40;66.70
53073;DHT22;38955;48.916;2.336;2023-06-26T11:48:07;25.10;67.20
53073;DHT22;38955;48.916;2.336;2023-06-26T11:50:16;25.10;67.80
53073;DHT22;38955;48.916;2.336;2023-06-26T11:52:19;25.30;67.70
53073;DHT22;38955;48.916;2.336;2023-06-26T11:54:27;25.20;67.90
53073;DHT22;38955;48.916;2.336;2023-06-26T11:56:29;25.10;67.50
53073;DHT22;38955;48.916;2.336;2023-06-26T11:58:32;25.10;67.50
53073;DHT22;38955;48.916;2.336;2023-06-26T12:00:34;24.80;68.30
53073;DHT22;38955;48.916;2.336;2023-06-26T12:02:36;24.80;68.70
53073;DHT22;38955;48.916;2.336;2023-06-26T12:04:42;24.90;69.30
53073;DHT22;38955;48.916;2.336;2023-06-26T12:06:47;25.20;69.00
53073;DHT22;38955;48.916;2.336;2023-06-26T12:08:50;25.20;67.40
53073;DHT22;38955;48.916;2.336;2023-06-26T12:10:52;25.20;67.70
53073;DHT22;38955;48.916;2.336;2023-06-26T12:12:55;25.20;68.80
53073;DHT22;38955;48.916;2.336;2023-06-26T12:15:00;25.40;68.10
53073;DHT22;38955;48.916;2.336;2023-06-26T12:17:08;25.60;68.00
53073;DHT22;38955;48.916;2.336;2023-06-26T12:19:10;25.70;68.10
53073;DHT22;38955;48.916;2.336;2023-06-26T12:21:28;25.40;68.20
53073;DHT22;38955;48.916;2.336;2023-06-26T12:23:39;25.30;69.40
53073;DHT22;38955;48.916;2.336;2023-06-26T12:25:41;25.30;70.00
53073;DHT22;38955;48.916;2.336;2023-06-26T12:27:45;25.40;68.80
53073;DHT22;38955;48.916;2.336;2023-06-26T12:29:50;25.40;67.60
53073;DHT22;38955;48.916;2.336;2023-06-26T12:31:53;25.60;67.90
53073;DHT22;38955;48.916;2.336;2023-06-26T12:33:56;25.80;68.40
53073;DHT22;38955;48.916;2.336;2023-06-26T12:35:58;25.80;66.80
53073;DHT22;38955;48.916;2.336;2023-06-26T12:38:00;25.70;66.30
53073;DHT22;38955;48.916;2.336;2023-06-26T12:40:04;25.80;66.40
53073;DHT22;38955;48.916;2.336;2023-06-26T12:42:08;25.70;64.70
53073;DHT22;38955;48.916;2.336;2023-06-26T12:44:19;25.60;64.40
53073;DHT22;38955;48.916;2.336;2023-06-26T12:46:33;25.60;64.30
53073;DHT22;38955;48.916;2.336;2023-06-26T12:48:38;25.60;64.70
53073;DHT22;38955;48.916;2.336;2023-06-26T12:50:45;25.50;64.90
53073;DHT22;38955;48.916;2.336;2023-06-26T12:52:47;25.60;65.90
53073;DHT22;38955;48.916;2.336;2023-06-26T12:54:53;25.70;64.80
53073;DHT22;38955;48.916;2.336;2023-06-26T12:56:57;25.80;65.00
53073;DHT22;38955;48.916;2.336;2023-06-26T12:58:59;25.80;64.70